createdAt,value
2018-02-02T00:00:00.940Z,81.57
2018-02-02T00:02:29.882Z,81.25
2018-02-02T00:04:59.119Z,81.74
2018-02-02T00:07:29.827Z,81.72
2018-02-02T00:09:59.779Z,81.33
2018-02-02T00:12:29.743Z,81.39
2018-02-02T00:15:01.929Z,81.35
2018-02-02T00:17:31.160Z,80.85
2018-02-02T00:20:00.273Z,80.02
2018-02-02T00:22:29.243Z,79.48
2018-02-02T00:24:59.443Z,79.70
2018-02-02T00:27:28.950Z,79.59
2018-02-02T00:30:04.392Z,79.00
2018-02-02T00:32:33.938Z,79.04
2018-02-02T00:35:03.915Z,78.19
2018-02-02T00:37:34.734Z,78.22
2018-02-02T00:40:04.811Z,77.95
2018-02-02T00:42:34.203Z,77.85
2018-02-02T00:45:04.757Z,77.88
2018-02-02T00:47:33.588Z,77.44
2018-02-02T00:50:02.588Z,76.76
2018-02-02T00:52:33.057Z,76.35
2018-02-02T00:55:02.009Z,76.28
2018-02-02T00:57:30.990Z,75.59
2018-02-02T00:59:59.985Z,75.66
2018-02-02T01:02:29.078Z,75.27
2018-02-02T01:04:58.304Z,74.49
2018-02-02T01:07:29.313Z,74.49
2018-02-02T01:09:59.236Z,74.57
2018-02-02T01:12:29.151Z,74.81
2018-02-02T01:14:59.200Z,74.56
2018-02-02T01:17:29.218Z,74.41
2018-02-02T01:19:58.211Z,74.39
2018-02-02T01:22:28.857Z,74.04
2018-02-02T01:24:57.937Z,73.97
2018-02-02T01:27:26.938Z,73.60
2018-02-02T01:29:56.706Z,74.01
2018-02-02T01:32:41.065Z,73.56
2018-02-02T01:35:11.786Z,72.74
2018-02-02T01:37:41.535Z,73.03
2018-02-02T01:40:18.415Z,73.29
2018-02-02T01:42:47.480Z,73.64
2018-02-02T01:45:17.911Z,73.74
2018-02-02T01:47:49.538Z,73.47
2018-02-02T01:50:18.669Z,73.28
2018-02-02T01:52:47.788Z,72.86
2018-02-02T01:55:22.184Z,73.06
2018-02-02T01:57:52.328Z,73.67
2018-02-02T02:00:23.651Z,73.58
2018-02-02T02:02:54.182Z,73.49
2018-02-02T02:05:23.783Z,73.27
2018-02-02T02:07:57.573Z,73.51
2018-02-02T02:10:26.629Z,75.16
2018-02-02T02:12:59.623Z,76.39
2018-02-02T02:15:28.663Z,77.50
2018-02-02T02:17:58.003Z,79.02
2018-02-02T02:20:28.149Z,80.45
2018-02-02T02:22:57.978Z,81.33
2018-02-02T02:25:27.228Z,81.77
2018-02-02T02:27:57.175Z,81.28
2018-02-02T02:30:27.055Z,80.75
2018-02-02T02:32:56.012Z,80.40
2018-02-02T02:35:28.217Z,80.23
2018-02-02T02:37:58.194Z,79.98
2018-02-02T02:40:27.131Z,80.14
2018-02-02T02:42:57.724Z,80.14
2018-02-02T02:45:28.590Z,79.82
2018-02-02T02:47:57.581Z,79.60
2018-02-02T02:50:30.160Z,79.57
2018-02-02T02:53:00.386Z,79.16
2018-02-02T02:55:31.494Z,79.32
2018-02-02T02:58:00.635Z,79.08
2018-02-02T03:00:31.126Z,78.86
2018-02-02T03:03:00.450Z,78.72
2018-02-02T03:05:29.419Z,78.60
2018-02-02T03:08:00.389Z,78.65
2018-02-02T03:10:29.585Z,78.90
2018-02-02T03:12:58.781Z,79.47
2018-02-02T03:15:35.436Z,79.60
2018-02-02T03:18:04.515Z,79.07
2018-02-02T03:20:33.615Z,79.32
2018-02-02T03:23:03.566Z,79.37
2018-02-02T03:25:32.761Z,79.22
2018-02-02T03:28:02.670Z,79.24
2018-02-02T03:30:31.953Z,79.31
2018-02-02T03:33:01.047Z,79.56
2018-02-02T03:35:30.247Z,79.55
2018-02-02T03:38:01.827Z,79.56
2018-02-02T03:40:31.813Z,79.45
2018-02-02T03:43:04.623Z,79.16
2018-02-02T03:45:33.688Z,79.25
2018-02-02T03:48:02.888Z,79.22
2018-02-02T03:50:33.682Z,78.85
2018-02-02T03:53:10.398Z,78.82
2018-02-02T03:55:40.657Z,78.50
2018-02-02T03:58:13.798Z,78.53
2018-02-02T04:00:43.652Z,79.34
2018-02-02T04:03:14.615Z,79.74
2018-02-02T04:05:43.592Z,79.41
2018-02-02T04:08:13.435Z,78.85
2018-02-02T04:10:42.451Z,78.29
2018-02-02T04:13:12.742Z,78.36
2018-02-02T04:15:44.405Z,78.44
2018-02-02T04:18:14.283Z,77.91
2018-02-02T04:20:43.356Z,77.77
2018-02-02T04:23:12.712Z,77.74
2018-02-02T04:25:41.860Z,77.43
2018-02-02T04:28:11.639Z,77.32
2018-02-02T04:30:42.713Z,77.09
2018-02-02T04:33:12.664Z,76.88
2018-02-02T04:35:42.481Z,76.84
2018-02-02T04:38:14.160Z,76.99
2018-02-02T04:40:45.758Z,77.11
2018-02-02T04:43:16.979Z,77.07
2018-02-02T04:45:46.915Z,77.39
2018-02-02T04:48:16.218Z,77.44
2018-02-02T04:50:46.380Z,77.48
2018-02-02T04:53:15.353Z,77.28
2018-02-02T04:55:44.453Z,77.39
2018-02-02T04:58:14.298Z,77.09
2018-02-02T05:00:43.516Z,76.98
2018-02-02T05:06:14.873Z,77.24
2018-02-02T05:08:45.517Z,76.80
2018-02-02T05:11:14.307Z,76.56
2018-02-02T05:13:43.088Z,76.65
2018-02-02T05:16:12.912Z,76.77
2018-02-02T05:18:41.823Z,77.59
2018-02-02T05:21:10.731Z,77.19
2018-02-02T05:23:39.611Z,77.21
2018-02-02T05:26:08.482Z,77.95
2018-02-02T05:28:37.254Z,77.98
2018-02-02T05:31:06.156Z,77.84
2018-02-02T05:33:34.997Z,77.78
2018-02-02T05:36:03.887Z,77.48
2018-02-02T05:38:34.361Z,77.46
2018-02-02T05:41:04.160Z,77.77
2018-02-02T05:43:33.074Z,77.05
2018-02-02T05:46:02.784Z,76.84
2018-02-02T05:48:31.594Z,77.27
2018-02-02T05:51:00.459Z,76.58
2018-02-02T05:53:32.961Z,76.79
2018-02-02T05:56:02.012Z,76.92
2018-02-02T05:58:31.085Z,76.82
2018-02-02T06:01:01.693Z,77.03
2018-02-02T06:03:30.716Z,77.50
2018-02-02T06:06:00.424Z,77.16
2018-02-02T06:08:31.260Z,77.10
2018-02-02T06:11:01.583Z,76.86
2018-02-02T06:13:30.660Z,76.91
2018-02-02T06:16:00.598Z,76.64
2018-02-02T06:18:31.329Z,76.31
2018-02-02T06:21:00.586Z,76.23
2018-02-02T06:23:29.623Z,76.03
2018-02-02T06:25:58.703Z,75.54
2018-02-02T06:28:27.997Z,75.48
2018-02-02T06:31:00.733Z,75.03
2018-02-02T06:33:29.838Z,74.97
2018-02-02T06:35:58.892Z,74.66
2018-02-02T06:38:30.656Z,74.45
2018-02-02T06:41:00.267Z,74.41
2018-02-02T06:43:29.465Z,74.22
2018-02-02T06:46:01.085Z,74.06
2018-02-02T06:48:30.146Z,74.07
2018-02-02T06:51:02.835Z,73.56
2018-02-02T06:53:31.822Z,73.43
2018-02-02T06:56:00.885Z,72.94
2018-02-02T06:58:36.430Z,72.88
2018-02-02T07:01:06.500Z,72.74
2018-02-02T07:03:35.682Z,72.53
2018-02-02T07:06:05.460Z,72.37
2018-02-02T07:08:35.101Z,72.08
2018-02-02T07:11:04.199Z,71.81
2018-02-02T07:13:34.286Z,71.63
2018-02-02T07:16:04.025Z,71.60
2018-02-02T07:18:34.761Z,71.43
2018-02-02T07:21:06.248Z,71.28
2018-02-02T07:23:35.379Z,71.06
2018-02-02T07:26:05.339Z,71.13
2018-02-02T07:28:35.168Z,71.05
2018-02-02T07:31:04.013Z,70.75
2018-02-02T07:33:34.259Z,70.37
2018-02-02T07:36:03.529Z,70.47
2018-02-02T07:38:32.368Z,70.37
2018-02-02T07:41:01.183Z,70.30
2018-02-02T07:43:31.777Z,70.12
2018-02-02T07:46:00.632Z,70.29
2018-02-02T07:48:29.472Z,70.17
2018-02-02T07:50:58.417Z,70.10
2018-02-02T07:53:27.291Z,69.72
2018-02-02T07:55:56.183Z,69.67
2018-02-02T07:58:25.506Z,69.32
2018-02-02T08:01:00.135Z,69.09
2018-02-02T08:03:30.200Z,68.87
2018-02-02T08:06:02.627Z,68.69
2018-02-02T08:08:35.033Z,68.71
2018-02-02T08:11:04.435Z,68.76
2018-02-02T08:13:33.492Z,68.75
2018-02-02T08:16:03.445Z,68.67
2018-02-02T08:18:32.335Z,68.30
2018-02-02T08:21:01.837Z,68.31
2018-02-02T08:23:32.339Z,68.02
2018-02-02T08:26:01.234Z,68.15
2018-02-02T08:28:31.132Z,67.91
2018-02-02T08:31:00.145Z,67.97
2018-02-02T08:33:29.990Z,67.55
2018-02-02T08:36:00.030Z,67.65
2018-02-02T08:38:29.970Z,67.72
2018-02-02T08:40:58.956Z,67.60
2018-02-02T08:43:31.362Z,67.72
2018-02-02T08:46:01.824Z,67.40
2018-02-02T08:48:31.738Z,66.93
2018-02-02T08:51:02.574Z,67.34
2018-02-02T08:53:32.577Z,67.26
2018-02-02T08:56:02.820Z,67.08
2018-02-02T08:58:31.877Z,66.84
2018-02-02T09:01:06.603Z,66.97
2018-02-02T09:03:36.627Z,66.64
2018-02-02T09:06:07.682Z,66.68
2018-02-02T09:08:37.304Z,66.63
2018-02-02T09:11:07.086Z,66.04
2018-02-02T09:13:36.181Z,65.62
2018-02-02T09:16:06.453Z,65.08
2018-02-02T09:18:37.068Z,65.49
2018-02-02T09:21:06.064Z,65.81
2018-02-02T09:23:38.532Z,65.31
2018-02-02T09:26:08.856Z,65.06
2018-02-02T09:28:38.747Z,64.60
2018-02-02T09:31:12.655Z,64.23
2018-02-02T09:33:41.756Z,63.49
2018-02-02T09:36:11.806Z,63.49
2018-02-02T09:38:41.894Z,63.24
2018-02-02T09:41:11.749Z,62.53
2018-02-02T09:43:41.567Z,62.73
2018-02-02T09:46:11.685Z,62.61
2018-02-02T09:48:41.535Z,62.31
2018-02-02T09:51:10.444Z,61.83
2018-02-02T09:53:39.541Z,61.81
2018-02-02T09:56:09.764Z,61.34
2018-02-02T09:58:39.611Z,61.56
2018-02-02T10:01:10.453Z,60.75
2018-02-02T10:03:40.305Z,60.63
2018-02-02T10:06:12.409Z,60.33
2018-02-02T10:08:42.547Z,59.80
2018-02-02T10:11:11.644Z,59.07
2018-02-02T10:13:43.475Z,59.43
2018-02-02T10:16:12.539Z,58.84
2018-02-02T10:18:41.564Z,58.27
2018-02-02T10:21:11.067Z,57.72
2018-02-02T10:23:40.812Z,57.21
2018-02-02T10:26:10.903Z,57.11
2018-02-02T10:28:40.813Z,56.80
2018-02-02T10:31:10.012Z,56.22
2018-02-02T10:33:39.037Z,56.33
2018-02-02T10:36:08.054Z,55.87
2018-02-02T10:38:37.623Z,55.89
2018-02-02T10:41:06.610Z,54.62
2018-02-02T10:43:36.552Z,54.56
2018-02-02T10:46:06.326Z,54.55
2018-02-02T10:48:35.431Z,54.64
2018-02-02T10:51:06.072Z,54.41
2018-02-02T10:53:35.438Z,53.74
2018-02-02T10:56:04.478Z,53.90
2018-02-02T10:58:35.096Z,53.77
2018-02-02T11:01:12.276Z,53.47
2018-02-02T11:03:46.666Z,53.43
2018-02-02T11:06:16.644Z,52.71
2018-02-02T11:08:46.699Z,52.75
2018-02-02T11:11:16.005Z,52.50
2018-02-02T11:13:45.234Z,52.31
2018-02-02T11:16:16.674Z,52.09
2018-02-02T11:18:48.135Z,52.45
2018-02-02T11:21:19.079Z,52.88
2018-02-02T11:23:48.978Z,52.91
2018-02-02T11:26:18.060Z,52.98
2018-02-02T11:28:49.723Z,53.32
2018-02-02T11:31:18.632Z,52.62
2018-02-02T11:33:47.527Z,52.16
2018-02-02T11:36:19.487Z,52.39
2018-02-02T11:38:49.512Z,52.05
2018-02-02T11:41:18.529Z,52.25
2018-02-02T11:43:48.410Z,52.41
2018-02-02T11:46:18.439Z,51.84
2018-02-02T11:48:48.228Z,51.83
2018-02-02T11:51:17.103Z,52.14
2018-02-02T11:53:45.906Z,52.13
2018-02-02T11:56:14.728Z,52.79
2018-02-02T11:58:44.473Z,52.13
2018-02-02T12:01:13.380Z,52.36
2018-02-02T12:03:42.222Z,51.75
2018-02-02T12:06:11.325Z,51.04
2018-02-02T12:08:40.140Z,51.06
2018-02-02T12:11:08.982Z,51.16
2018-02-02T12:13:42.849Z,51.14
2018-02-02T12:16:11.700Z,51.52
2018-02-02T12:18:40.907Z,51.71
2018-02-02T12:21:09.821Z,51.63
2018-02-02T12:23:41.290Z,50.29
2018-02-02T12:26:16.005Z,50.74
2018-02-02T12:28:44.915Z,50.67
2018-02-02T12:31:37.669Z,50.87
2018-02-02T12:34:06.552Z,50.68
2018-02-02T12:36:38.201Z,50.44
2018-02-02T12:39:07.094Z,50.93
2018-02-02T12:41:36.040Z,50.56
2018-02-02T12:44:05.352Z,50.94
2018-02-02T12:46:35.443Z,51.13
2018-02-02T12:49:07.329Z,50.54
2018-02-02T12:51:36.245Z,50.93
2018-02-02T12:54:05.156Z,50.89
2018-02-02T12:56:34.912Z,50.85
2018-02-02T12:59:03.830Z,50.85
2018-02-02T13:01:32.688Z,51.20
2018-02-02T13:04:01.534Z,51.11
2018-02-02T13:06:30.363Z,50.95
2018-02-02T13:08:59.186Z,51.36
2018-02-02T13:11:33.438Z,51.49
2018-02-02T13:14:02.267Z,51.33
2018-02-02T13:16:31.108Z,51.68
2018-02-02T13:18:59.996Z,51.48
2018-02-02T13:21:28.817Z,51.71
2018-02-02T13:23:57.996Z,51.93
2018-02-02T13:26:26.875Z,51.66
2018-02-02T13:28:55.729Z,51.70
2018-02-02T13:31:24.617Z,51.63
2018-02-02T13:33:53.695Z,52.06
2018-02-02T13:36:22.555Z,51.87
2018-02-02T13:38:51.406Z,51.50
2018-02-02T13:41:20.261Z,51.98
2018-02-02T13:43:49.177Z,52.41
2018-02-02T13:46:18.061Z,52.51
2018-02-02T13:48:46.937Z,52.54
2018-02-02T13:51:15.792Z,52.82
2018-02-02T13:53:45.610Z,53.09
2018-02-02T13:56:15.570Z,53.40
2018-02-02T13:58:46.410Z,53.39
2018-02-02T14:01:16.074Z,53.48
2018-02-02T14:03:46.711Z,53.45
2018-02-02T14:06:15.550Z,53.47
2018-02-02T14:08:44.472Z,53.56
2018-02-02T14:11:13.381Z,53.40
2018-02-02T14:13:42.369Z,53.66
2018-02-02T14:16:11.368Z,53.71
2018-02-02T14:18:40.317Z,53.87
2018-02-02T14:21:09.224Z,54.11
2018-02-02T14:23:38.107Z,54.46
2018-02-02T14:26:09.513Z,54.99
2018-02-02T14:28:38.354Z,54.83
2018-02-02T14:31:07.208Z,55.12
2018-02-02T14:33:36.143Z,55.33
2018-02-02T14:36:05.234Z,55.30
2018-02-02T14:38:34.088Z,55.63
2018-02-02T14:41:04.589Z,56.17
2018-02-02T14:43:33.505Z,56.50
2018-02-02T14:46:02.408Z,56.89
2018-02-02T14:48:31.321Z,57.12
2018-02-02T14:51:00.411Z,57.58
2018-02-02T14:53:29.306Z,57.86
2018-02-02T14:56:00.743Z,58.31
2018-02-02T14:58:29.576Z,58.84
2018-02-02T15:00:58.391Z,59.30
2018-02-02T15:03:29.387Z,59.67
2018-02-02T15:05:58.460Z,59.95
2018-02-02T15:08:29.052Z,60.28
2018-02-02T15:11:01.138Z,60.61
2018-02-02T15:13:30.157Z,60.95
2018-02-02T15:15:59.183Z,61.17
2018-02-02T15:18:30.846Z,61.36
2018-02-02T15:21:01.445Z,61.53
2018-02-02T15:23:30.741Z,61.92
2018-02-02T15:26:00.040Z,61.90
2018-02-02T15:28:29.199Z,61.78
2018-02-02T15:30:58.949Z,62.09
2018-02-02T15:33:28.920Z,62.18
2018-02-02T15:35:59.874Z,62.50
2018-02-02T15:38:34.863Z,62.46
2018-02-02T15:41:04.744Z,62.70
2018-02-02T15:43:37.333Z,62.79
2018-02-02T15:46:06.545Z,62.89
2018-02-02T15:48:36.841Z,63.23
2018-02-02T15:51:06.907Z,63.14
2018-02-02T15:53:35.867Z,63.22
2018-02-02T15:56:05.867Z,63.46
2018-02-02T15:58:36.058Z,63.57
2018-02-02T16:01:05.202Z,63.63
2018-02-02T16:03:34.350Z,63.69
2018-02-02T16:06:06.572Z,63.66
2018-02-02T16:08:36.189Z,63.83
2018-02-02T16:11:05.313Z,63.96
2018-02-02T16:13:37.914Z,64.02
2018-02-02T16:16:07.878Z,64.10
2018-02-02T16:18:37.071Z,64.00
2018-02-02T16:21:08.618Z,64.14
2018-02-02T16:23:39.496Z,64.24
2018-02-02T16:26:08.588Z,64.05
2018-02-02T16:28:40.370Z,64.21
2018-02-02T16:31:09.861Z,64.35
2018-02-02T16:33:38.912Z,64.39
2018-02-02T16:36:10.250Z,64.20
2018-02-02T16:38:39.410Z,64.25
2018-02-02T16:41:09.164Z,64.36
2018-02-02T16:43:39.234Z,64.35
2018-02-02T16:46:08.410Z,64.80
2018-02-02T16:48:38.416Z,65.30
2018-02-02T16:51:12.633Z,66.02
2018-02-02T16:53:41.771Z,66.29
2018-02-02T16:56:11.662Z,66.21
2018-02-02T16:58:43.410Z,66.77
2018-02-02T17:01:12.784Z,66.49
2018-02-02T17:03:42.715Z,66.35
2018-02-02T17:06:12.227Z,66.01
2018-02-02T17:08:42.376Z,65.91
2018-02-02T17:11:12.831Z,65.36
2018-02-02T17:13:43.175Z,64.96
2018-02-02T17:16:12.535Z,64.71
2018-02-02T17:18:42.770Z,64.25
2018-02-02T17:21:12.597Z,64.30
2018-02-02T17:23:42.723Z,64.10
2018-02-02T17:26:11.902Z,64.27
2018-02-02T17:28:41.576Z,64.28
2018-02-02T17:31:11.577Z,64.03
2018-02-02T17:33:41.898Z,63.92
2018-02-02T17:36:12.207Z,63.28
2018-02-02T17:38:42.989Z,63.15
2018-02-02T17:41:13.111Z,62.81
2018-02-02T17:43:46.931Z,62.79
2018-02-02T17:46:16.211Z,63.24
2018-02-02T17:48:45.693Z,63.14
2018-02-02T17:51:15.721Z,63.18
2018-02-02T17:53:44.956Z,62.82
2018-02-02T17:56:14.117Z,62.54
2018-02-02T17:58:44.332Z,62.36
2018-02-02T18:04:22.187Z,62.27
2018-02-02T18:06:51.265Z,61.97
2018-02-02T18:09:21.304Z,62.27
2018-02-02T18:11:51.406Z,61.86
2018-02-02T18:14:20.594Z,61.99
2018-02-02T18:16:50.924Z,61.98
2018-02-02T18:19:25.756Z,62.14
2018-02-02T18:21:55.112Z,62.08
2018-02-02T18:24:26.219Z,61.96
2018-02-02T18:26:56.357Z,62.09
2018-02-02T18:29:25.742Z,62.09
2018-02-02T18:31:55.336Z,61.82
2018-02-02T18:34:27.968Z,62.26
2018-02-02T18:36:57.917Z,62.45
2018-02-02T18:39:28.054Z,62.70
2018-02-02T18:41:59.025Z,62.25
2018-02-02T18:44:28.397Z,62.23
2018-02-02T18:46:57.634Z,62.48
2018-02-02T18:49:29.396Z,62.10
2018-02-02T18:51:58.639Z,62.04
2018-02-02T18:54:28.568Z,62.43
2018-02-02T18:56:58.074Z,62.56
2018-02-02T18:59:27.463Z,62.61
2018-02-02T19:01:57.408Z,62.32
2018-02-02T19:04:27.622Z,62.48
2018-02-02T19:06:56.997Z,62.87
2018-02-02T19:09:26.523Z,62.70
2018-02-02T19:11:56.802Z,62.67
2018-02-02T19:14:26.867Z,62.82
2018-02-02T19:16:56.968Z,62.66
2018-02-02T19:19:26.875Z,62.57
2018-02-02T19:21:57.786Z,62.90
2018-02-02T19:24:33.752Z,62.97
2018-02-02T19:27:04.516Z,63.00
2018-02-02T19:29:34.890Z,63.08
2018-02-02T19:32:04.066Z,63.21
2018-02-02T19:34:33.445Z,63.51
2018-02-02T19:37:02.923Z,63.86
2018-02-02T19:39:33.391Z,64.16
2018-02-02T19:42:03.198Z,64.41
2018-02-02T19:44:34.354Z,64.75
2018-02-02T19:47:04.653Z,64.78
2018-02-02T19:49:33.949Z,65.17
2018-02-02T19:52:03.384Z,65.54
2018-02-02T19:54:33.252Z,65.84
2018-02-02T19:57:06.086Z,65.91
2018-02-02T19:59:36.105Z,65.64
2018-02-02T20:02:07.217Z,65.22
2018-02-02T20:04:36.547Z,65.07
2018-02-02T20:07:06.856Z,64.85
2018-02-02T20:09:37.236Z,64.69
2018-02-02T20:12:10.299Z,64.52
2018-02-02T20:14:40.617Z,64.43
2018-02-02T20:17:11.531Z,64.45
2018-02-02T20:19:41.837Z,64.62
2018-02-02T20:22:11.398Z,64.83
2018-02-02T20:24:42.952Z,64.67
2018-02-02T20:27:12.732Z,64.73
2018-02-02T20:29:41.779Z,64.71
2018-02-02T20:32:13.467Z,64.68
2018-02-02T20:34:42.417Z,64.79
2018-02-02T20:37:13.780Z,65.36
2018-02-02T20:39:43.326Z,65.49
2018-02-02T20:42:14.093Z,65.42
2018-02-02T20:44:45.928Z,65.34
2018-02-02T20:47:15.242Z,65.22
2018-02-02T20:49:44.653Z,64.81
2018-02-02T20:52:14.733Z,65.06
2018-02-02T20:54:44.181Z,65.17
2018-02-02T20:57:13.821Z,65.04
2018-02-02T20:59:43.267Z,64.93
2018-02-02T21:02:12.669Z,64.94
2018-02-02T21:04:42.126Z,65.12
2018-02-02T21:07:13.923Z,65.02
2018-02-02T21:09:44.784Z,65.08
2018-02-02T21:12:14.206Z,65.46
2018-02-02T21:14:44.426Z,65.30
2018-02-02T21:17:13.495Z,65.68
2018-02-02T21:19:43.665Z,65.82
2018-02-02T21:22:13.211Z,65.91
2018-02-02T21:24:42.342Z,65.90
2018-02-02T21:27:14.200Z,65.81
2018-02-02T21:29:44.197Z,66.13
2018-02-02T21:32:13.626Z,66.11
2018-02-02T21:34:43.670Z,65.97
2018-02-02T21:37:12.805Z,65.83
2018-02-02T21:39:42.035Z,66.00
2018-02-02T21:42:13.271Z,65.67
2018-02-02T21:44:44.327Z,65.89
2018-02-02T21:47:13.480Z,65.73
2018-02-02T21:49:44.445Z,65.88
2018-02-02T21:52:13.652Z,65.93
2018-02-02T21:54:45.585Z,65.91
2018-02-02T21:57:14.900Z,65.96
2018-02-02T21:59:44.664Z,66.11
2018-02-02T22:02:13.755Z,66.01
2018-02-02T22:04:42.988Z,65.96
2018-02-02T22:07:11.969Z,65.95
2018-02-02T22:09:41.455Z,65.93
2018-02-02T22:12:10.530Z,66.14
2018-02-02T22:14:40.037Z,65.92
2018-02-02T22:17:10.194Z,66.09
2018-02-02T22:19:39.297Z,66.26
2018-02-02T22:22:08.258Z,66.46
2018-02-02T22:24:38.900Z,66.54
2018-02-02T22:27:08.214Z,66.58
2018-02-02T22:29:37.528Z,66.37
2018-02-02T22:32:07.657Z,66.47
2018-02-02T22:34:37.659Z,66.44
2018-02-02T22:37:07.107Z,66.73
2018-02-02T22:39:36.952Z,66.68
2018-02-02T22:42:07.774Z,66.66
2018-02-02T22:44:40.098Z,66.48
2018-02-02T22:47:09.018Z,66.57
2018-02-02T22:49:39.153Z,66.86
2018-02-02T22:52:11.729Z,66.80
2018-02-02T22:54:40.737Z,66.18
2018-02-02T22:57:09.718Z,66.20
2018-02-02T22:59:41.076Z,66.28
2018-02-02T23:02:11.501Z,66.27
2018-02-02T23:04:40.702Z,66.14
2018-02-02T23:07:10.616Z,65.95
2018-02-02T23:09:39.531Z,65.69
2018-02-02T23:12:08.502Z,65.82
2018-02-02T23:14:38.446Z,65.75
2018-02-02T23:17:08.636Z,65.86
2018-02-02T23:19:37.561Z,65.79
2018-02-02T23:22:08.322Z,65.74
2018-02-02T23:24:38.288Z,65.60
2018-02-02T23:27:08.517Z,65.72
2018-02-02T23:29:41.192Z,65.80
2018-02-02T23:32:11.512Z,65.90
2018-02-02T23:34:42.206Z,65.66
2018-02-02T23:37:12.468Z,65.56
2018-02-02T23:39:42.253Z,65.52
2018-02-02T23:42:11.275Z,65.53
2018-02-02T23:44:43.564Z,65.30
2018-02-02T23:47:17.556Z,65.43
2018-02-02T23:49:47.508Z,65.44
2018-02-02T23:52:17.655Z,65.44
2018-02-02T23:54:47.555Z,65.63
2018-02-02T23:57:16.733Z,65.72
2018-02-02T23:59:46.404Z,65.78
